createdAt,value
2017-09-13T00:00:26.890Z,77.15
2017-09-13T00:02:55.504Z,77.22
2017-09-13T00:05:24.123Z,78.09
2017-09-13T00:07:54.391Z,78.42
2017-09-13T00:10:22.763Z,78.75
2017-09-13T00:12:51.140Z,78.45
2017-09-13T00:15:21.663Z,79.02
2017-09-13T00:17:50.234Z,79.50
2017-09-13T00:20:19.554Z,78.61
2017-09-13T00:22:48.744Z,78.44
2017-09-13T00:25:17.089Z,78.47
2017-09-13T00:27:45.549Z,77.93
2017-09-13T00:30:15.203Z,78.43
2017-09-13T00:32:44.359Z,78.61
2017-09-13T00:35:13.506Z,79.05
2017-09-13T00:37:42.211Z,80.06
2017-09-13T00:40:10.619Z,80.23
2017-09-13T00:42:39.891Z,79.84
2017-09-13T00:45:09.533Z,80.23
2017-09-13T00:47:38.473Z,80.22
2017-09-13T00:50:06.851Z,80.08
2017-09-13T00:52:35.543Z,80.12
2017-09-13T00:55:04.060Z,79.58
2017-09-13T00:57:33.480Z,80.38
2017-09-13T01:00:02.907Z,79.31
2017-09-13T01:02:31.271Z,79.87
2017-09-13T01:05:00.402Z,80.33
2017-09-13T01:07:29.204Z,79.82
2017-09-13T01:09:58.385Z,80.56
2017-09-13T01:12:26.771Z,79.79
2017-09-13T01:14:57.687Z,79.92
2017-09-13T01:17:26.090Z,80.12
2017-09-13T01:19:57.305Z,79.60
2017-09-13T01:22:26.030Z,79.24
2017-09-13T01:24:54.401Z,79.93
2017-09-13T01:27:24.527Z,79.90
2017-09-13T01:29:53.506Z,79.32
2017-09-13T01:32:21.882Z,79.76
2017-09-13T01:34:50.267Z,79.41
2017-09-13T01:37:19.141Z,79.63
2017-09-13T01:39:47.481Z,79.58
2017-09-13T01:42:15.836Z,79.79
2017-09-13T01:44:47.004Z,79.51
2017-09-13T01:47:16.787Z,79.85
2017-09-13T01:49:47.042Z,80.04
2017-09-13T01:52:17.000Z,79.61
2017-09-13T01:54:45.374Z,79.62
2017-09-13T01:57:14.817Z,79.46
2017-09-13T01:59:43.203Z,79.42
2017-09-13T02:02:11.582Z,78.62
2017-09-13T02:04:41.440Z,79.38
2017-09-13T02:07:09.789Z,80.20
2017-09-13T02:09:38.130Z,79.63
2017-09-13T02:12:07.094Z,79.23
2017-09-13T02:14:35.681Z,79.13
2017-09-13T02:17:04.665Z,79.38
2017-09-13T02:19:33.558Z,79.59
2017-09-13T02:22:01.901Z,80.10
2017-09-13T02:24:30.987Z,79.89
2017-09-13T02:26:59.641Z,79.27
2017-09-13T02:29:28.934Z,79.57
2017-09-13T02:31:58.056Z,79.79
2017-09-13T02:34:27.135Z,79.65
2017-09-13T02:36:55.457Z,79.25
2017-09-13T02:39:24.598Z,79.39
2017-09-13T02:41:54.134Z,79.49
2017-09-13T02:44:22.484Z,79.30
2017-09-13T02:46:50.813Z,79.07
2017-09-13T02:49:19.477Z,79.47
2017-09-13T02:51:48.420Z,80.21
2017-09-13T02:54:21.398Z,79.71
2017-09-13T02:56:52.435Z,78.76
2017-09-13T02:59:21.905Z,77.95
2017-09-13T03:01:50.243Z,78.21
2017-09-13T03:04:18.644Z,78.76
2017-09-13T03:06:49.070Z,78.42
2017-09-13T03:09:17.461Z,78.21
2017-09-13T03:11:45.837Z,77.81
2017-09-13T03:14:16.292Z,78.70
2017-09-13T03:16:44.646Z,78.35
2017-09-13T03:19:12.991Z,78.32
2017-09-13T03:21:42.511Z,78.26
2017-09-13T03:24:10.873Z,78.52
2017-09-13T03:26:39.246Z,78.77
2017-09-13T03:29:09.940Z,78.48
2017-09-13T03:31:38.296Z,77.80
2017-09-13T03:34:06.711Z,77.51
2017-09-13T03:36:35.581Z,77.84
2017-09-13T03:39:03.920Z,77.97
2017-09-13T03:41:32.352Z,78.18
2017-09-13T03:44:01.008Z,77.66
2017-09-13T03:46:30.293Z,76.92
2017-09-13T03:48:58.671Z,76.76
2017-09-13T03:51:28.096Z,76.55
2017-09-13T03:53:56.481Z,76.84
2017-09-13T03:56:24.856Z,77.11
2017-09-13T03:58:53.540Z,76.49
2017-09-13T04:01:22.115Z,76.25
2017-09-13T04:03:50.483Z,77.52
2017-09-13T04:06:19.334Z,77.36
2017-09-13T04:08:47.697Z,77.15
2017-09-13T04:11:16.871Z,77.49
2017-09-13T04:13:45.509Z,77.76
2017-09-13T04:16:13.896Z,79.22
2017-09-13T04:18:42.270Z,79.16
2017-09-13T04:21:12.086Z,80.11
2017-09-13T04:23:40.418Z,80.82
2017-09-13T04:26:08.773Z,81.03
2017-09-13T04:28:37.766Z,80.89
2017-09-13T04:31:06.258Z,79.90
2017-09-13T04:33:34.615Z,80.56
2017-09-13T04:36:03.386Z,81.36
2017-09-13T04:38:34.489Z,82.25
2017-09-13T04:41:03.401Z,82.78
2017-09-13T04:43:33.148Z,82.52
2017-09-13T04:46:01.746Z,82.29
2017-09-13T04:48:30.114Z,82.23
2017-09-13T04:50:58.751Z,82.32
2017-09-13T04:53:28.726Z,82.51
2017-09-13T04:55:57.112Z,82.59
2017-09-13T04:58:25.919Z,82.42
2017-09-13T05:00:55.120Z,81.65
2017-09-13T05:03:23.468Z,82.24
2017-09-13T05:05:53.168Z,82.14
2017-09-13T05:08:22.264Z,82.22
2017-09-13T05:10:50.632Z,82.80
2017-09-13T05:13:20.780Z,82.37
2017-09-13T05:15:49.660Z,83.18
2017-09-13T05:18:19.479Z,83.90
2017-09-13T05:20:48.359Z,83.98
2017-09-13T05:23:16.698Z,83.30
2017-09-13T05:25:45.933Z,82.95
2017-09-13T05:28:15.095Z,82.75
2017-09-13T05:30:43.472Z,83.18
2017-09-13T05:33:11.855Z,83.80
2017-09-13T05:35:40.679Z,84.06
2017-09-13T05:38:09.074Z,84.89
2017-09-13T05:40:37.451Z,84.08
2017-09-13T05:43:06.990Z,86.25
2017-09-13T05:45:35.333Z,87.18
2017-09-13T05:48:04.273Z,87.76
2017-09-13T05:50:34.011Z,85.60
2017-09-13T05:53:02.362Z,84.83
2017-09-13T05:55:31.558Z,84.93
2017-09-13T05:58:00.473Z,84.29
2017-09-13T06:00:28.887Z,84.59
2017-09-13T06:02:57.419Z,84.24
2017-09-13T06:05:26.113Z,83.92
2017-09-13T06:07:55.295Z,84.92
2017-09-13T06:10:23.659Z,85.50
2017-09-13T06:12:52.798Z,85.63
2017-09-13T06:15:21.372Z,85.92
2017-09-13T06:17:50.615Z,85.25
2017-09-13T06:20:19.499Z,86.21
2017-09-13T06:22:49.368Z,86.07
2017-09-13T06:25:17.726Z,85.82
2017-09-13T06:27:47.471Z,85.15
2017-09-13T06:30:16.118Z,85.62
2017-09-13T06:32:44.474Z,85.00
2017-09-13T06:35:14.185Z,85.31
2017-09-13T06:37:43.187Z,85.41
2017-09-13T06:40:11.541Z,85.36
2017-09-13T06:42:41.024Z,85.48
2017-09-13T06:45:09.649Z,85.89
2017-09-13T06:47:38.185Z,86.69
2017-09-13T06:50:07.507Z,86.92
2017-09-13T06:52:35.862Z,87.17
2017-09-13T06:55:04.212Z,86.63
2017-09-13T06:57:33.495Z,85.88
2017-09-13T07:00:02.822Z,85.34
2017-09-13T07:02:33.018Z,85.50
2017-09-13T07:05:01.682Z,85.48
2017-09-13T07:07:31.617Z,85.49
2017-09-13T07:09:59.964Z,85.48
2017-09-13T07:12:30.411Z,85.17
2017-09-13T07:14:58.790Z,84.96
2017-09-13T07:17:27.145Z,86.25
2017-09-13T07:19:56.414Z,86.85
2017-09-13T07:22:25.463Z,86.69
2017-09-13T07:24:54.587Z,86.62
2017-09-13T07:27:24.170Z,86.77
2017-09-13T07:29:53.293Z,86.32
2017-09-13T07:32:21.682Z,85.36
2017-09-13T07:34:50.381Z,85.33
2017-09-13T07:37:21.438Z,84.00
2017-09-13T07:39:49.849Z,83.15
2017-09-13T07:42:20.550Z,82.94
2017-09-13T07:44:48.901Z,82.89
2017-09-13T07:47:18.426Z,83.67
2017-09-13T07:49:47.927Z,83.55
2017-09-13T07:52:16.296Z,82.89
2017-09-13T07:54:44.709Z,83.49
2017-09-13T07:57:14.250Z,83.71
2017-09-13T07:59:42.814Z,83.67
2017-09-13T08:02:11.952Z,84.10
2017-09-13T08:04:41.508Z,84.62
2017-09-13T08:07:09.874Z,84.55
2017-09-13T08:09:38.279Z,83.84
2017-09-13T08:12:07.625Z,83.31
2017-09-13T08:14:35.955Z,81.22
2017-09-13T08:17:05.085Z,81.76
2017-09-13T08:19:35.270Z,84.03
2017-09-13T08:22:03.858Z,83.43
2017-09-13T08:24:32.984Z,82.90
2017-09-13T08:27:02.202Z,82.83
2017-09-13T08:29:30.557Z,83.04
2017-09-13T08:31:59.562Z,81.06
2017-09-13T08:34:29.256Z,80.21
2017-09-13T08:36:57.606Z,81.02
2017-09-13T08:39:25.976Z,81.26
2017-09-13T08:41:55.396Z,80.65
2017-09-13T08:44:25.859Z,81.17
2017-09-13T08:46:55.025Z,80.34
2017-09-13T08:49:24.558Z,80.97
2017-09-13T08:51:52.897Z,81.16
2017-09-13T08:54:21.273Z,81.01
2017-09-13T08:56:50.546Z,80.30
2017-09-13T08:59:18.892Z,79.51
2017-09-13T09:01:47.274Z,79.34
2017-09-13T09:04:16.370Z,78.47
2017-09-13T09:06:45.320Z,78.51
2017-09-13T09:09:13.718Z,77.93
2017-09-13T09:11:43.458Z,79.17
2017-09-13T09:14:12.404Z,79.59
2017-09-13T09:16:40.773Z,80.50
2017-09-13T09:19:10.803Z,80.74
2017-09-13T09:21:39.296Z,80.12
2017-09-13T09:24:09.396Z,79.96
2017-09-13T09:26:38.131Z,80.51
2017-09-13T09:29:06.493Z,80.57
2017-09-13T09:31:35.935Z,80.37
2017-09-13T09:34:05.512Z,79.79
2017-09-13T09:36:34.800Z,79.62
2017-09-13T09:39:03.430Z,78.82
2017-09-13T09:41:33.009Z,78.44
2017-09-13T09:44:01.345Z,79.06
2017-09-13T09:46:29.718Z,76.12
2017-09-13T09:48:58.435Z,72.99
2017-09-13T09:51:27.807Z,72.92
2017-09-13T09:53:56.340Z,70.82
2017-09-13T09:56:25.337Z,72.68
2017-09-13T09:58:53.685Z,72.55
2017-09-13T10:01:22.062Z,74.83
2017-09-13T10:03:50.711Z,76.85
2017-09-13T10:06:19.059Z,77.44
2017-09-13T10:08:47.395Z,78.69
2017-09-13T10:11:16.097Z,79.40
2017-09-13T10:13:45.207Z,78.72
2017-09-13T10:16:14.332Z,78.81
2017-09-13T10:18:44.605Z,77.75
2017-09-13T10:21:12.968Z,77.27
2017-09-13T10:23:42.193Z,75.51
2017-09-13T10:26:11.074Z,75.18
2017-09-13T10:28:39.439Z,73.92
2017-09-13T10:31:08.290Z,73.72
2017-09-13T10:33:36.955Z,71.96
2017-09-13T10:36:07.025Z,70.65
2017-09-13T10:38:35.357Z,65.97
2017-09-13T10:41:04.958Z,59.64
2017-09-13T10:43:33.306Z,54.00
2017-09-13T10:46:01.636Z,50.30
2017-09-13T10:48:30.258Z,50.78
2017-09-13T10:50:59.484Z,52.34
2017-09-13T10:53:28.632Z,57.74
2017-09-13T10:55:57.510Z,59.33
2017-09-13T10:58:25.892Z,64.14
2017-09-13T11:00:54.262Z,65.15
2017-09-13T11:03:23.134Z,65.49
2017-09-13T11:05:51.781Z,65.53
2017-09-13T11:08:20.206Z,70.63
2017-09-13T11:10:49.789Z,73.36
2017-09-13T11:13:18.223Z,77.26
2017-09-13T11:15:46.593Z,75.27
2017-09-13T11:18:15.304Z,74.12
2017-09-13T11:20:43.641Z,60.89
2017-09-13T11:23:13.265Z,55.03
2017-09-13T11:25:42.162Z,47.55
2017-09-13T11:28:10.730Z,46.49
2017-09-13T11:30:39.056Z,45.43
2017-09-13T11:33:07.965Z,41.67
2017-09-13T11:35:36.299Z,47.11
2017-09-13T11:38:04.916Z,49.80
2017-09-13T11:40:33.634Z,54.12
2017-09-13T11:43:02.060Z,54.19
2017-09-13T11:45:30.518Z,56.61
2017-09-13T11:47:59.445Z,55.70
2017-09-13T11:50:27.827Z,57.67
2017-09-13T11:52:56.186Z,58.53
2017-09-13T11:55:24.968Z,59.45
2017-09-13T11:57:53.330Z,62.76
2017-09-13T12:00:21.714Z,65.39
2017-09-13T12:02:50.555Z,68.25
2017-09-13T12:05:19.829Z,70.55
2017-09-13T12:07:49.016Z,69.74
2017-09-13T12:10:17.963Z,60.76
2017-09-13T12:12:46.345Z,54.33
2017-09-13T12:15:15.499Z,56.32
2017-09-13T12:17:44.541Z,59.41
2017-09-13T12:20:14.054Z,60.89
2017-09-13T12:22:42.403Z,51.07
2017-09-13T12:25:11.397Z,46.59
2017-09-13T12:27:40.923Z,43.91
2017-09-13T12:30:10.210Z,40.80
2017-09-13T12:32:39.780Z,41.74
2017-09-13T12:35:08.110Z,40.32
2017-09-13T12:37:38.937Z,42.35
2017-09-13T12:40:08.528Z,42.26
2017-09-13T12:42:36.924Z,38.36
2017-09-13T12:45:06.050Z,38.96
2017-09-13T12:47:36.241Z,36.99
2017-09-13T12:50:04.680Z,40.44
2017-09-13T12:52:33.114Z,40.76
2017-09-13T12:55:02.061Z,39.86
2017-09-13T12:57:30.448Z,45.33
2017-09-13T12:59:58.775Z,49.18
2017-09-13T13:02:27.462Z,44.13
2017-09-13T13:04:55.794Z,38.88
2017-09-13T13:07:24.238Z,37.65
2017-09-13T13:09:53.084Z,38.75
2017-09-13T13:12:22.156Z,36.30
2017-09-13T13:14:50.527Z,36.34
2017-09-13T13:17:19.591Z,38.25
2017-09-13T13:19:48.724Z,35.29
2017-09-13T13:22:17.068Z,39.25
2017-09-13T13:24:46.060Z,43.37
2017-09-13T13:27:14.411Z,43.12
2017-09-13T13:29:43.665Z,43.47
2017-09-13T13:32:13.138Z,40.74
2017-09-13T13:34:42.371Z,38.51
2017-09-13T13:37:10.711Z,39.62
2017-09-13T13:39:39.434Z,41.49
2017-09-13T13:42:07.790Z,41.84
2017-09-13T13:44:37.028Z,44.80
2017-09-13T13:47:06.341Z,47.07
2017-09-13T13:49:35.121Z,48.45
2017-09-13T13:52:03.703Z,48.37
2017-09-13T13:54:32.421Z,50.41
2017-09-13T13:57:00.831Z,53.74
2017-09-13T13:59:29.868Z,55.53
2017-09-13T14:01:58.562Z,55.94
2017-09-13T14:04:26.992Z,55.57
2017-09-13T14:06:56.263Z,56.04
2017-09-13T14:09:24.980Z,52.51
2017-09-13T14:11:53.381Z,51.89
2017-09-13T14:14:21.762Z,50.75
2017-09-13T14:16:50.621Z,50.29
2017-09-13T14:19:21.194Z,49.48
2017-09-13T14:21:49.527Z,48.81
2017-09-13T14:24:18.343Z,47.79
2017-09-13T14:26:47.718Z,45.44
2017-09-13T14:29:16.633Z,44.96
2017-09-13T14:31:45.334Z,44.72
2017-09-13T14:34:13.647Z,47.24
2017-09-13T14:36:42.784Z,47.15
2017-09-13T14:39:11.580Z,47.56
2017-09-13T14:41:39.922Z,47.25
2017-09-13T14:44:08.285Z,47.26
2017-09-13T14:46:37.182Z,46.55
2017-09-13T14:49:06.307Z,46.98
2017-09-13T14:51:34.696Z,48.30
2017-09-13T14:54:03.429Z,47.30
2017-09-13T14:56:32.702Z,47.50
2017-09-13T14:59:01.096Z,47.42
2017-09-13T15:01:30.079Z,47.55
2017-09-13T15:03:58.588Z,47.92
2017-09-13T15:06:27.191Z,48.03
2017-09-13T15:08:56.570Z,47.97
2017-09-13T15:11:24.931Z,48.31
2017-09-13T15:13:53.528Z,49.01
2017-09-13T15:16:23.531Z,49.03
2017-09-13T15:18:51.860Z,48.88
2017-09-13T15:21:20.993Z,47.70
2017-09-13T15:23:50.955Z,47.38
2017-09-13T15:26:19.305Z,46.75
2017-09-13T15:28:48.224Z,46.79
2017-09-13T15:31:17.922Z,47.02
2017-09-13T15:33:46.277Z,47.30
2017-09-13T15:36:16.513Z,47.51
2017-09-13T15:38:45.201Z,47.78
2017-09-13T15:41:14.164Z,47.80
2017-09-13T15:43:42.528Z,47.96
2017-09-13T15:46:11.960Z,48.23
2017-09-13T15:48:41.078Z,47.94
2017-09-13T15:51:09.434Z,48.04
2017-09-13T15:53:38.416Z,48.10
2017-09-13T15:56:07.491Z,47.15
2017-09-13T15:58:36.624Z,47.73
2017-09-13T16:01:05.252Z,47.57
2017-09-13T16:03:35.285Z,47.86
2017-09-13T16:06:04.488Z,47.77
2017-09-13T16:08:35.155Z,47.80
2017-09-13T16:11:03.576Z,47.76
2017-09-13T16:13:32.308Z,48.39
2017-09-13T16:16:01.344Z,48.46
2017-09-13T16:18:30.878Z,48.94
2017-09-13T16:21:00.121Z,48.83
2017-09-13T16:23:28.908Z,49.26
2017-09-13T16:25:57.254Z,49.88
2017-09-13T16:28:26.366Z,50.15
2017-09-13T16:30:56.058Z,52.48
2017-09-13T16:33:25.307Z,52.78
2017-09-13T16:35:53.660Z,53.75
2017-09-13T16:38:23.334Z,53.96
2017-09-13T16:40:53.149Z,59.89
2017-09-13T16:43:22.284Z,60.05
2017-09-13T16:45:51.174Z,63.35
2017-09-13T16:48:20.669Z,64.73
2017-09-13T16:50:49.049Z,66.48
2017-09-13T16:53:19.307Z,66.91
2017-09-13T16:55:47.648Z,67.02
2017-09-13T16:58:16.774Z,67.19
2017-09-13T17:00:45.475Z,67.34
2017-09-13T17:03:13.840Z,66.59
2017-09-13T17:05:42.205Z,66.72
2017-09-13T17:08:10.991Z,67.21
2017-09-13T17:10:40.076Z,68.32
2017-09-13T17:13:08.557Z,68.33
2017-09-13T17:15:37.239Z,69.27
2017-09-13T17:18:05.736Z,68.32
2017-09-13T17:20:34.102Z,69.35
2017-09-13T17:23:03.934Z,69.04
2017-09-13T17:25:32.313Z,68.87
2017-09-13T17:28:01.671Z,69.19
2017-09-13T17:30:31.228Z,69.46
2017-09-13T17:32:59.622Z,69.24
2017-09-13T17:35:27.975Z,69.02
2017-09-13T17:37:58.086Z,68.54
2017-09-13T17:40:26.810Z,67.92
2017-09-13T17:42:55.137Z,67.98
2017-09-13T17:45:23.997Z,68.08
2017-09-13T17:47:52.494Z,68.00
2017-09-13T17:50:20.870Z,66.71
2017-09-13T17:52:49.547Z,65.57
2017-09-13T17:55:18.430Z,65.89
2017-09-13T17:58:57.314Z,65.13
2017-09-13T18:01:25.886Z,65.25
2017-09-13T18:03:55.799Z,65.30
2017-09-13T18:06:24.728Z,65.48
2017-09-13T18:08:53.087Z,65.09
2017-09-13T18:11:22.215Z,65.13
2017-09-13T18:13:52.627Z,64.40
2017-09-13T18:16:21.033Z,64.58
2017-09-13T18:18:49.399Z,63.50
2017-09-13T18:21:18.079Z,62.44
2017-09-13T18:23:46.754Z,61.40
2017-09-13T18:26:15.106Z,60.58
2017-09-13T18:28:43.963Z,60.19
2017-09-13T18:31:13.226Z,59.98
2017-09-13T18:33:41.610Z,58.83
2017-09-13T18:36:11.082Z,57.92
2017-09-13T18:38:40.235Z,57.94
2017-09-13T18:41:08.637Z,56.97
2017-09-13T18:43:37.398Z,56.73
2017-09-13T18:46:07.209Z,56.63
2017-09-13T18:48:36.181Z,56.84
2017-09-13T18:51:05.096Z,57.41
2017-09-13T18:53:33.516Z,57.54
2017-09-13T18:56:01.878Z,57.79
2017-09-13T18:58:30.649Z,57.34
2017-09-13T19:01:00.178Z,57.42
2017-09-13T19:03:29.398Z,57.13
2017-09-13T19:05:58.195Z,57.30
2017-09-13T19:08:27.907Z,57.19
2017-09-13T19:10:57.095Z,57.31
2017-09-13T19:13:26.765Z,57.70
2017-09-13T19:15:55.347Z,57.83
2017-09-13T19:18:24.595Z,57.68
2017-09-13T19:20:53.531Z,57.99
2017-09-13T19:23:21.906Z,57.85
2017-09-13T19:25:51.502Z,57.69
2017-09-13T19:28:20.398Z,58.17
2017-09-13T19:30:48.842Z,58.37
2017-09-13T19:33:17.986Z,57.71
2017-09-13T19:35:47.651Z,57.96
2017-09-13T19:38:16.114Z,57.93
2017-09-13T19:40:44.513Z,58.40
2017-09-13T19:43:13.927Z,58.57
2017-09-13T19:45:43.111Z,59.35
2017-09-13T19:48:12.236Z,59.11
2017-09-13T19:50:41.007Z,58.83
2017-09-13T19:53:10.314Z,59.40
2017-09-13T19:55:38.863Z,59.10
2017-09-13T19:58:07.751Z,59.46
2017-09-13T20:00:36.893Z,59.21
2017-09-13T20:03:05.350Z,59.20
2017-09-13T20:05:34.075Z,60.10
2017-09-13T20:08:03.252Z,59.79
2017-09-13T20:10:31.631Z,59.22
2017-09-13T20:13:01.070Z,59.67
2017-09-13T20:15:30.201Z,59.56
2017-09-13T20:17:58.534Z,59.37
2017-09-13T20:20:27.449Z,59.58
2017-09-13T20:22:56.148Z,59.53
2017-09-13T20:25:25.322Z,59.72
2017-09-13T20:27:54.203Z,59.29
2017-09-13T20:30:24.654Z,59.26
2017-09-13T20:32:53.130Z,59.81
2017-09-13T20:35:21.908Z,59.65
2017-09-13T20:37:50.279Z,59.36
2017-09-13T20:40:18.680Z,59.62
2017-09-13T20:42:47.572Z,59.59
2017-09-13T20:45:15.993Z,59.83
2017-09-13T20:47:44.347Z,59.47
2017-09-13T20:50:13.236Z,59.70
2017-09-13T20:52:41.626Z,60.00
2017-09-13T20:55:10.163Z,59.62
2017-09-13T20:57:40.374Z,59.21
2017-09-13T21:00:09.060Z,59.75
2017-09-13T21:02:37.440Z,60.00
2017-09-13T21:05:06.387Z,60.06
2017-09-13T21:07:34.784Z,59.50
2017-09-13T21:10:03.914Z,59.17
2017-09-13T21:12:32.616Z,59.04
2017-09-13T21:15:00.996Z,59.79
2017-09-13T21:17:29.401Z,60.20
2017-09-13T21:19:59.225Z,59.95
2017-09-13T21:22:27.587Z,59.37
2017-09-13T21:24:56.589Z,60.40
2017-09-13T21:27:28.268Z,59.82
2017-09-13T21:29:57.754Z,59.96
2017-09-13T21:32:26.703Z,60.50
2017-09-13T21:34:55.342Z,61.09
2017-09-13T21:37:25.190Z,60.60
2017-09-13T21:39:54.119Z,60.73
2017-09-13T21:42:22.775Z,61.23
2017-09-13T21:44:51.190Z,62.00
2017-09-13T21:47:20.498Z,61.98
2017-09-13T21:49:49.414Z,62.02
2017-09-13T21:52:18.605Z,62.71
2017-09-13T21:54:47.394Z,63.25
2017-09-13T21:57:16.221Z,62.72
2017-09-13T21:59:44.612Z,63.10
2017-09-13T22:02:13.827Z,63.51
2017-09-13T22:04:43.062Z,62.77
2017-09-13T22:07:11.469Z,61.84
2017-09-13T22:09:39.844Z,62.51
2017-09-13T22:12:11.865Z,63.17
2017-09-13T22:14:40.306Z,63.35
2017-09-13T22:17:08.665Z,63.61
2017-09-13T22:19:38.116Z,63.38
2017-09-13T22:22:06.468Z,63.93
2017-09-13T22:24:34.929Z,63.94
2017-09-13T22:27:03.589Z,64.18
2017-09-13T22:29:31.986Z,64.83
2017-09-13T22:32:02.960Z,64.36
2017-09-13T22:34:32.364Z,65.47
2017-09-13T22:37:01.887Z,65.27
2017-09-13T22:39:30.279Z,65.44
2017-09-13T22:41:59.041Z,65.51
2017-09-13T22:44:27.420Z,65.71
2017-09-13T22:46:55.799Z,65.41
2017-09-13T22:49:25.304Z,65.55
2017-09-13T22:51:53.667Z,64.89
2017-09-13T22:54:22.047Z,66.55
2017-09-13T22:56:51.051Z,66.66
2017-09-13T22:59:20.280Z,67.37
2017-09-13T23:01:49.210Z,66.31
2017-09-13T23:04:19.329Z,66.26
2017-09-13T23:06:48.453Z,66.85
2017-09-13T23:09:16.815Z,67.41
2017-09-13T23:11:46.580Z,67.83
2017-09-13T23:14:15.772Z,66.89
2017-09-13T23:16:45.376Z,66.80
2017-09-13T23:19:14.919Z,67.19
2017-09-13T23:21:43.389Z,67.62
2017-09-13T23:24:11.748Z,67.44
2017-09-13T23:26:41.362Z,67.25
2017-09-13T23:29:10.549Z,68.26
2017-09-13T23:31:38.932Z,67.95
2017-09-13T23:34:07.974Z,68.51
2017-09-13T23:36:37.088Z,68.77
2017-09-13T23:39:06.207Z,68.58
2017-09-13T23:41:35.095Z,69.17
2017-09-13T23:44:03.476Z,68.64
2017-09-13T23:46:33.582Z,69.67
2017-09-13T23:49:02.253Z,69.29
2017-09-13T23:51:31.639Z,68.96
2017-09-13T23:53:59.987Z,69.10
2017-09-13T23:56:29.860Z,68.68
2017-09-13T23:58:59.837Z,68.88
